createdAt,value
2022-09-27T00:03:17.359Z,10.04
2022-09-27T00:08:20.264Z,10.02
2022-09-27T00:13:22.963Z,10.06
2022-09-27T00:18:27.506Z,10.14
2022-09-27T00:23:30.379Z,10.20
2022-09-27T00:28:33.667Z,10.18
2022-09-27T00:33:37.755Z,10.22
2022-09-27T00:38:41.686Z,10.23
2022-09-27T00:43:47.554Z,10.25
2022-09-27T00:49:01.302Z,10.24
2022-09-27T00:54:04.525Z,10.19
2022-09-27T00:59:13.504Z,10.11
2022-09-27T01:04:22.604Z,10.15
2022-09-27T01:09:25.837Z,10.10
2022-09-27T01:14:42.411Z,10.06
2022-09-27T01:20:18.122Z,10.00
2022-09-27T01:25:33.364Z,9.95
2022-09-27T01:30:44.343Z,9.98
2022-09-27T01:36:01.826Z,9.99
2022-09-27T01:41:09.963Z,10.12
2022-09-27T01:46:19.237Z,10.01
2022-09-27T01:51:26.358Z,10.07
2022-09-27T01:56:34.509Z,10.21
2022-09-27T02:01:40.549Z,10.26
2022-09-27T02:06:47.918Z,10.30
2022-09-27T02:11:56.465Z,10.17
2022-09-27T02:17:06.075Z,10.10
2022-09-27T02:22:26.360Z,10.15
2022-09-27T02:27:32.919Z,10.19
2022-09-27T02:32:37.493Z,10.24
2022-09-27T02:37:40.475Z,10.22
2022-09-27T02:42:45.366Z,10.23
2022-09-27T02:48:02.484Z,10.23
2022-09-27T02:53:12.047Z,10.30
2022-09-27T02:58:26.839Z,10.36
2022-09-27T03:03:38.165Z,10.30
2022-09-27T03:08:41.940Z,10.24
2022-09-27T03:14:07.222Z,10.26
2022-09-27T03:19:09.908Z,10.28
2022-09-27T03:24:12.598Z,10.34
2022-09-27T03:29:15.619Z,10.46
2022-09-27T03:34:19.733Z,10.54
2022-09-27T03:39:22.708Z,10.60
2022-09-27T03:44:25.442Z,10.49
2022-09-27T03:49:29.526Z,10.46
2022-09-27T03:54:32.682Z,10.48
2022-09-27T03:59:35.382Z,10.38
2022-09-27T04:04:39.461Z,10.18
2022-09-27T04:09:44.687Z,10.12
2022-09-27T04:14:47.645Z,10.07
2022-09-27T04:19:52.146Z,10.01
2022-09-27T04:24:54.899Z,9.97
2022-09-27T04:29:57.558Z,9.98
2022-09-27T04:35:19.216Z,10.03
2022-09-27T04:40:22.550Z,10.10
2022-09-27T04:45:25.321Z,10.17
2022-09-27T04:50:32.163Z,10.15
2022-09-27T04:55:37.308Z,9.98
2022-09-27T05:00:40.305Z,9.93
2022-09-27T05:05:44.357Z,9.92
2022-09-27T05:10:47.345Z,9.88
2022-09-27T05:15:50.055Z,9.91
2022-09-27T05:20:54.338Z,9.97
2022-09-27T05:25:57.327Z,9.99
2022-09-27T05:31:00.177Z,9.94
2022-09-27T05:36:04.593Z,9.92
2022-09-27T05:41:07.843Z,9.91
2022-09-27T05:46:10.961Z,9.83
2022-09-27T05:51:15.746Z,9.78
2022-09-27T05:56:18.826Z,9.86
2022-09-27T06:01:22.105Z,9.93
2022-09-27T06:06:26.281Z,9.96
2022-09-27T06:11:29.204Z,10.04
2022-09-27T06:16:32.109Z,10.06
2022-09-27T06:21:36.427Z,10.03
2022-09-27T06:26:39.210Z,10.02
2022-09-27T06:31:41.883Z,9.94
2022-09-27T06:36:49.414Z,9.85
2022-09-27T06:41:57.873Z,9.79
2022-09-27T06:47:00.578Z,9.79
2022-09-27T06:52:05.993Z,9.88
2022-09-27T06:57:08.680Z,9.86
2022-09-27T07:02:12.168Z,9.89
2022-09-27T07:07:16.502Z,9.88
2022-09-27T07:12:23.154Z,9.95
2022-09-27T07:17:27.806Z,10.13
2022-09-27T07:22:31.918Z,10.26
2022-09-27T07:27:38.198Z,10.29
2022-09-27T07:32:42.307Z,10.30
2022-09-27T07:37:46.378Z,10.37
2022-09-27T07:42:50.121Z,10.56
2022-09-27T07:47:53.257Z,10.74
2022-09-27T07:52:57.705Z,10.95
2022-09-27T07:58:04.853Z,11.14
2022-09-27T08:03:08.357Z,11.28
2022-09-27T08:08:13.200Z,11.35
2022-09-27T08:13:17.968Z,11.57
2022-09-27T08:18:21.981Z,11.84
2022-09-27T08:23:26.795Z,11.91
2022-09-27T08:28:30.173Z,12.00
2022-09-27T08:33:35.762Z,12.06
2022-09-27T08:38:43.284Z,12.05
2022-09-27T08:43:55.163Z,12.02
2022-09-27T08:49:05.574Z,12.09
2022-09-27T08:54:15.775Z,12.00
2022-09-27T08:59:21.895Z,11.81
2022-09-27T09:04:29.696Z,11.69
2022-09-27T09:09:45.515Z,11.73
2022-09-27T09:15:08.419Z,11.73
2022-09-27T09:20:31.002Z,11.81
2022-09-27T09:25:41.819Z,12.03
2022-09-27T09:30:51.772Z,12.29
2022-09-27T09:36:00.270Z,12.54
2022-09-27T09:41:11.268Z,12.72
2022-09-27T09:46:19.404Z,12.86
2022-09-27T09:51:28.794Z,12.88
2022-09-27T09:56:36.705Z,12.85
2022-09-27T10:01:43.453Z,12.82
2022-09-27T10:06:46.189Z,12.80
2022-09-27T10:11:50.458Z,12.83
2022-09-27T10:16:58.974Z,12.91
2022-09-27T10:22:04.401Z,13.04
2022-09-27T10:27:08.493Z,12.96
2022-09-27T10:32:24.633Z,12.98
2022-09-27T10:37:27.346Z,13.11
2022-09-27T10:42:36.442Z,13.19
2022-09-27T10:47:39.338Z,13.14
2022-09-27T10:52:42.877Z,13.00
2022-09-27T10:57:50.741Z,12.71
2022-09-27T11:02:56.523Z,12.56
2022-09-27T11:08:02.905Z,12.49
2022-09-27T11:13:14.374Z,12.42
2022-09-27T11:18:28.479Z,12.50
2022-09-27T11:23:44.545Z,12.58
2022-09-27T11:28:57.427Z,12.69
2022-09-27T11:34:17.403Z,12.68
2022-09-27T11:39:24.122Z,12.66
2022-09-27T11:45:02.999Z,12.65
2022-09-27T11:50:31.348Z,12.55
2022-09-27T11:55:46.152Z,12.57
2022-09-27T12:01:07.283Z,12.52
2022-09-27T12:06:14.332Z,12.36
2022-09-27T12:11:24.756Z,12.42
2022-09-27T12:16:31.555Z,12.58
2022-09-27T12:21:34.746Z,12.62
2022-09-27T12:26:40.900Z,12.62
2022-09-27T12:31:51.781Z,12.55
2022-09-27T12:37:01.952Z,12.47
2022-09-27T12:42:14.128Z,12.35
2022-09-27T12:47:32.099Z,12.41
2022-09-27T13:00:18.568Z,12.50
2022-09-27T13:06:24.690Z,12.44
2022-09-27T13:18:25.732Z,12.76
2022-09-27T13:23:59.393Z,13.02
2022-09-27T13:29:04.656Z,13.18
2022-09-27T13:34:49.600Z,13.31
2022-09-27T13:46:20.556Z,13.43
2022-09-27T13:51:50.783Z,13.37
2022-09-27T13:56:58.011Z,13.30
2022-09-27T14:02:14.490Z,13.34
2022-09-27T14:07:27.238Z,13.54
2022-09-27T14:12:34.351Z,13.70
2022-09-27T14:17:45.736Z,13.82
2022-09-27T14:22:55.806Z,13.95
2022-09-27T14:28:00.176Z,14.17
2022-09-27T14:33:04.009Z,14.29
2022-09-27T14:38:32.954Z,14.09
2022-09-27T14:43:34.813Z,13.76
2022-09-27T14:48:39.082Z,13.51
2022-09-27T14:53:47.139Z,13.36
2022-09-27T14:58:56.555Z,13.31
2022-09-27T15:04:07.443Z,13.04
2022-09-27T15:09:15.073Z,12.97
2022-09-27T15:14:21.299Z,12.99
2022-09-27T15:19:26.929Z,12.72
2022-09-27T15:24:44.989Z,12.32
2022-09-27T15:29:51.318Z,12.19
2022-09-27T15:34:54.887Z,11.98
2022-09-27T15:40:29.999Z,11.81
2022-09-27T15:45:34.874Z,11.77
2022-09-27T15:50:39.168Z,11.69
2022-09-27T15:55:45.237Z,11.65
2022-09-27T16:00:55.446Z,11.65
2022-09-27T16:05:59.878Z,11.57
2022-09-27T16:11:05.614Z,11.59
2022-09-27T16:16:15.414Z,11.61
2022-09-27T16:21:18.196Z,11.57
2022-09-27T16:26:22.509Z,11.56
2022-09-27T16:31:25.260Z,11.58
2022-09-27T16:36:28.186Z,11.58
2022-09-27T16:41:33.225Z,11.54
2022-09-27T16:46:35.763Z,11.28
2022-09-27T16:51:56.029Z,11.25
2022-09-27T16:57:01.429Z,11.17
2022-09-27T17:02:05.410Z,11.15
2022-09-27T17:07:08.202Z,11.09
2022-09-27T17:12:12.367Z,10.99
2022-09-27T17:17:15.286Z,10.96
2022-09-27T17:22:18.442Z,10.94
2022-09-27T17:27:25.927Z,10.87
2022-09-27T17:32:29.043Z,10.90
2022-09-27T17:37:31.734Z,10.95
2022-09-27T17:42:37.282Z,10.94
2022-09-27T17:47:57.769Z,10.84
2022-09-27T17:53:00.509Z,10.79
2022-09-27T17:58:05.401Z,10.76
2022-09-27T18:03:08.184Z,10.73
2022-09-27T18:08:10.990Z,10.74
2022-09-27T18:13:15.099Z,10.70
2022-09-27T18:18:18.949Z,10.72
2022-09-27T18:23:21.646Z,10.75
2022-09-27T18:28:29.198Z,10.73
2022-09-27T18:33:33.111Z,10.64
2022-09-27T18:38:36.238Z,10.57
2022-09-27T18:43:41.279Z,10.51
2022-09-27T18:48:44.262Z,10.49
2022-09-27T18:53:47.971Z,10.49
2022-09-27T18:58:52.326Z,10.45
2022-09-27T19:03:55.078Z,10.40
2022-09-27T19:08:58.837Z,10.34
2022-09-27T19:14:04.771Z,10.40
2022-09-27T19:19:07.597Z,10.47
2022-09-27T19:24:10.262Z,10.51
2022-09-27T19:29:14.818Z,10.49
2022-09-27T19:34:17.831Z,10.50
2022-09-27T19:39:20.531Z,10.52
2022-09-27T19:44:25.986Z,10.52
2022-09-27T19:49:28.695Z,10.55
2022-09-27T19:54:31.562Z,10.56
2022-09-27T19:59:35.621Z,10.57
2022-09-27T20:04:38.674Z,10.55
2022-09-27T20:09:42.004Z,10.54
2022-09-27T20:14:46.323Z,10.52
2022-09-27T20:19:49.278Z,10.49
2022-09-27T20:24:51.930Z,10.46
2022-09-27T20:29:57.166Z,10.42
2022-09-27T20:35:00.090Z,10.41
2022-09-27T20:40:08.083Z,10.42
2022-09-27T20:45:12.485Z,10.46
2022-09-27T20:50:15.390Z,10.50
2022-09-27T20:55:18.144Z,10.46
2022-09-27T21:00:22.213Z,10.42
2022-09-27T21:05:25.019Z,10.36
2022-09-27T21:10:27.796Z,10.28
2022-09-27T21:15:34.091Z,10.24
2022-09-27T21:20:36.833Z,10.17
2022-09-27T21:25:39.529Z,10.13
2022-09-27T21:30:43.675Z,10.08
2022-09-27T21:35:50.853Z,10.12
2022-09-27T21:40:58.319Z,10.09
2022-09-27T21:46:07.514Z,10.05
2022-09-27T21:51:12.235Z,10.04
2022-09-27T21:56:14.962Z,9.99
2022-09-27T22:01:21.736Z,9.98
2022-09-27T22:06:26.363Z,10.02
2022-09-27T22:11:31.120Z,10.09
2022-09-27T22:16:35.385Z,10.12
2022-09-27T22:21:39.632Z,10.12
2022-09-27T22:26:43.653Z,10.13
2022-09-27T22:31:47.815Z,10.13
2022-09-27T22:36:53.657Z,10.16
2022-09-27T22:41:57.123Z,10.12
2022-09-27T22:47:01.224Z,10.06
2022-09-27T22:52:03.955Z,9.98
2022-09-27T22:57:06.653Z,9.92
2022-09-27T23:02:10.727Z,9.96
2022-09-27T23:07:13.648Z,9.96
2022-09-27T23:12:16.360Z,9.99
2022-09-27T23:17:20.467Z,10.03
2022-09-27T23:22:23.234Z,10.08
2022-09-27T23:27:48.801Z,10.08
2022-09-27T23:32:55.511Z,9.99
2022-09-27T23:38:01.325Z,9.98
2022-09-27T23:43:04.488Z,10.01
2022-09-27T23:48:08.564Z,10.05
2022-09-27T23:53:11.257Z,10.07
2022-09-27T23:58:14.186Z,10.07
